createdAt,value
2023-03-30T00:01:25.879Z,0.66
2023-03-30T00:03:55.678Z,0.64
2023-03-30T00:06:24.665Z,0.62
2023-03-30T00:08:57.521Z,0.60
2023-03-30T00:11:27.002Z,0.58
2023-03-30T00:13:55.172Z,0.56
2023-03-30T00:16:23.332Z,0.55
2023-03-30T00:18:51.760Z,0.54
2023-03-30T00:21:21.367Z,0.53
2023-03-30T00:23:52.388Z,0.50
2023-03-30T00:26:20.592Z,0.49
2023-03-30T00:28:48.646Z,0.47
2023-03-30T00:31:18.287Z,0.46
2023-03-30T00:33:47.897Z,0.46
2023-03-30T00:36:17.715Z,0.45
2023-03-30T00:38:48.558Z,0.45
2023-03-30T00:41:17.831Z,0.44
2023-03-30T00:43:56.276Z,0.43
2023-03-30T00:46:25.401Z,0.42
2023-03-30T00:48:58.868Z,0.41
2023-03-30T00:51:29.061Z,0.40
2023-03-30T00:54:07.929Z,0.40
2023-03-30T00:56:36.197Z,0.40
2023-03-30T00:59:04.251Z,0.38
2023-03-30T01:01:39.372Z,0.37
2023-03-30T01:04:09.082Z,0.37
2023-03-30T01:06:40.563Z,0.36
2023-03-30T01:09:09.167Z,0.37
2023-03-30T01:11:40.570Z,0.36
2023-03-30T01:14:10.315Z,0.36
2023-03-30T01:17:01.694Z,0.35
2023-03-30T01:19:36.347Z,0.34
2023-03-30T01:22:52.864Z,0.34
2023-03-30T01:25:36.870Z,0.34
2023-03-30T01:28:31.649Z,0.34
2023-03-30T01:31:17.596Z,0.34
2023-03-30T01:33:57.710Z,0.33
2023-03-30T01:36:45.832Z,0.32
2023-03-30T01:39:13.849Z,0.30
2023-03-30T01:42:00.306Z,0.29
2023-03-30T01:44:53.965Z,0.29
2023-03-30T01:47:28.250Z,0.28
2023-03-30T01:50:13.809Z,0.27
2023-03-30T01:52:45.191Z,0.25
2023-03-30T01:55:19.179Z,0.24
2023-03-30T01:57:53.432Z,0.23
2023-03-30T02:00:23.430Z,0.21
2023-03-30T02:03:08.729Z,0.21
2023-03-30T02:05:37.275Z,0.21
2023-03-30T02:08:12.439Z,0.20
2023-03-30T02:10:42.889Z,0.20
2023-03-30T02:13:11.092Z,0.19
2023-03-30T02:15:43.305Z,0.18
2023-03-30T02:18:11.595Z,0.18
2023-03-30T02:20:39.896Z,0.17
2023-03-30T02:23:09.857Z,0.16
2023-03-30T02:25:41.151Z,0.16
2023-03-30T02:28:10.937Z,0.15
2023-03-30T02:30:43.135Z,0.14
2023-03-30T02:33:19.245Z,0.14
2023-03-30T02:36:05.247Z,0.14
2023-03-30T02:38:43.954Z,0.12
2023-03-30T02:41:40.720Z,0.10
2023-03-30T02:44:30.699Z,0.09
2023-03-30T02:47:14.429Z,0.08
2023-03-30T02:49:55.060Z,0.07
2023-03-30T02:52:41.580Z,0.05
2023-03-30T02:55:12.001Z,0.04
2023-03-30T02:58:18.805Z,0.04
2023-03-30T03:01:28.587Z,0.04
2023-03-30T03:04:05.742Z,0.02
2023-03-30T03:06:44.337Z,0.02
2023-03-30T03:09:12.399Z,0.02
2023-03-30T03:11:40.869Z,0.02
2023-03-30T03:14:09.748Z,-0.00
2023-03-30T03:16:39.769Z,-0.01
2023-03-30T03:19:17.858Z,-0.02
2023-03-30T03:21:48.654Z,-0.04
2023-03-30T03:24:17.809Z,-0.05
2023-03-30T03:27:04.454Z,-0.06
2023-03-30T03:29:38.000Z,-0.06
2023-03-30T03:32:08.081Z,-0.06
2023-03-30T03:34:44.887Z,-0.06
2023-03-30T03:37:14.549Z,-0.06
2023-03-30T03:39:49.368Z,-0.06
2023-03-30T03:42:17.907Z,-0.06
2023-03-30T03:45:01.502Z,-0.05
2023-03-30T03:47:32.188Z,-0.05
2023-03-30T03:50:04.090Z,-0.05
2023-03-30T03:52:32.567Z,-0.04
2023-03-30T03:55:00.974Z,-0.03
2023-03-30T03:57:32.468Z,-0.03
2023-03-30T04:00:00.796Z,-0.02
2023-03-30T04:02:31.547Z,-0.02
2023-03-30T04:04:59.835Z,-0.02
2023-03-30T04:07:28.234Z,0.00
2023-03-30T04:09:56.552Z,0.02
2023-03-30T04:12:42.954Z,0.03
2023-03-30T04:15:35.035Z,0.05
2023-03-30T04:18:21.809Z,0.06
2023-03-30T04:21:17.801Z,0.09
2023-03-30T04:24:12.246Z,0.11
2023-03-30T04:26:59.134Z,0.13
2023-03-30T04:29:45.826Z,0.16
2023-03-30T04:32:38.923Z,0.19
2023-03-30T04:35:27.373Z,0.24
2023-03-30T04:38:02.553Z,0.26
2023-03-30T04:40:45.863Z,0.29
2023-03-30T04:43:34.267Z,0.30
2023-03-30T04:46:38.202Z,0.31
2023-03-30T04:49:06.553Z,0.35
2023-03-30T04:51:54.875Z,0.38
2023-03-30T04:54:45.292Z,0.42
2023-03-30T04:57:32.144Z,0.46
2023-03-30T05:00:06.078Z,0.50
2023-03-30T05:02:46.962Z,0.53
2023-03-30T05:05:41.134Z,0.55
2023-03-30T05:08:33.511Z,0.58
2023-03-30T05:11:24.488Z,0.62
2023-03-30T05:14:18.686Z,0.67
2023-03-30T05:17:02.743Z,0.71
2023-03-30T05:19:46.758Z,0.75
2023-03-30T05:22:22.824Z,0.79
2023-03-30T05:25:01.451Z,0.82
2023-03-30T05:27:50.913Z,0.86
2023-03-30T05:30:38.492Z,0.90
2023-03-30T05:33:33.247Z,0.94
2023-03-30T05:36:21.804Z,0.98
2023-03-30T05:39:05.154Z,1.02
2023-03-30T05:42:08.684Z,1.07
2023-03-30T05:44:54.674Z,1.11
2023-03-30T05:47:41.765Z,1.15
2023-03-30T05:50:37.165Z,1.20
2023-03-30T05:53:11.407Z,1.23
2023-03-30T05:55:49.531Z,1.26
2023-03-30T05:58:46.451Z,1.32
2023-03-30T06:01:21.071Z,1.36
2023-03-30T06:03:50.625Z,1.43
2023-03-30T06:06:18.857Z,1.52
2023-03-30T06:08:49.537Z,1.74
2023-03-30T06:11:20.432Z,2.34
2023-03-30T06:13:59.061Z,3.47
2023-03-30T06:16:39.352Z,4.91
2023-03-30T06:19:08.096Z,6.28
2023-03-30T06:21:36.206Z,7.80
2023-03-30T06:24:23.762Z,9.68
2023-03-30T06:26:52.434Z,11.48
2023-03-30T06:29:20.962Z,13.32
2023-03-30T06:31:51.448Z,15.11
2023-03-30T06:34:38.683Z,16.97
2023-03-30T06:37:08.959Z,18.36
2023-03-30T06:39:38.002Z,19.47
2023-03-30T06:42:06.538Z,20.48
2023-03-30T06:44:54.034Z,21.55
2023-03-30T06:47:23.195Z,22.29
2023-03-30T06:49:52.184Z,22.90
2023-03-30T06:52:59.961Z,23.46
2023-03-30T06:55:32.935Z,23.84
2023-03-30T06:58:04.919Z,24.10
2023-03-30T07:00:33.770Z,24.33
2023-03-30T07:03:22.383Z,24.71
2023-03-30T07:06:13.759Z,25.03
2023-03-30T07:08:41.875Z,25.15
2023-03-30T07:11:16.756Z,25.22
2023-03-30T07:13:46.840Z,25.29
2023-03-30T07:16:15.225Z,25.32
2023-03-30T07:18:43.456Z,25.27
2023-03-30T07:21:11.622Z,25.27
2023-03-30T07:23:43.451Z,25.27
2023-03-30T07:26:16.833Z,25.27
2023-03-30T07:28:56.676Z,25.13
2023-03-30T07:31:25.609Z,24.42
2023-03-30T07:33:55.810Z,22.56
2023-03-30T07:36:26.777Z,20.18
2023-03-30T07:38:55.201Z,17.81
2023-03-30T07:41:23.635Z,15.84
2023-03-30T07:43:54.766Z,14.14
2023-03-30T07:46:23.050Z,12.73
2023-03-30T07:48:53.032Z,11.52
2023-03-30T07:51:21.333Z,10.59
2023-03-30T07:54:01.467Z,9.79
2023-03-30T07:56:39.558Z,9.13
2023-03-30T07:59:10.357Z,8.57
2023-03-30T08:01:39.162Z,8.07
2023-03-30T08:04:13.568Z,7.65
2023-03-30T08:06:42.824Z,7.33
2023-03-30T08:09:11.072Z,7.02
2023-03-30T08:11:39.693Z,6.74
2023-03-30T08:14:07.853Z,6.46
2023-03-30T08:16:36.798Z,6.25
2023-03-30T08:19:05.338Z,6.10
2023-03-30T08:21:33.713Z,5.94
2023-03-30T08:24:02.273Z,5.77
2023-03-30T08:26:33.848Z,5.66
2023-03-30T08:29:02.356Z,5.58
2023-03-30T08:31:32.927Z,5.51
2023-03-30T08:34:03.594Z,5.46
2023-03-30T08:36:33.286Z,5.42
2023-03-30T08:39:10.956Z,5.38
2023-03-30T08:41:58.830Z,5.33
2023-03-30T08:44:52.632Z,5.31
2023-03-30T08:47:26.772Z,5.28
2023-03-30T08:50:29.192Z,5.26
2023-03-30T08:53:00.456Z,5.22
2023-03-30T08:55:32.509Z,5.20
2023-03-30T08:58:27.293Z,5.17
2023-03-30T09:01:21.628Z,5.15
2023-03-30T09:04:09.958Z,5.16
2023-03-30T09:06:49.612Z,5.18
2023-03-30T09:09:29.257Z,5.20
2023-03-30T09:12:12.361Z,5.23
2023-03-30T09:14:51.459Z,5.27
2023-03-30T09:17:22.090Z,5.31
2023-03-30T09:20:13.127Z,5.33
2023-03-30T09:22:43.459Z,5.39
2023-03-30T09:25:20.204Z,5.40
2023-03-30T09:28:11.204Z,5.42
2023-03-30T09:30:45.748Z,5.45
2023-03-30T09:33:13.902Z,5.49
2023-03-30T09:35:44.930Z,5.53
2023-03-30T09:38:13.991Z,5.56
2023-03-30T09:40:54.612Z,5.59
2023-03-30T09:43:34.106Z,5.61
2023-03-30T09:46:06.684Z,5.65
2023-03-30T09:48:42.464Z,5.69
2023-03-30T09:51:25.652Z,5.74
2023-03-30T09:54:02.072Z,5.79
2023-03-30T09:56:36.134Z,5.85
2023-03-30T09:59:31.483Z,5.88
2023-03-30T10:02:18.484Z,5.91
2023-03-30T10:04:55.229Z,5.97
2023-03-30T10:07:34.716Z,6.03
2023-03-30T10:10:37.264Z,6.04
2023-03-30T10:13:13.746Z,6.06
2023-03-30T10:15:46.656Z,6.11
2023-03-30T10:18:19.534Z,6.16
2023-03-30T10:20:51.804Z,6.22
2023-03-30T10:23:22.349Z,6.27
2023-03-30T10:25:52.311Z,6.32
2023-03-30T10:28:27.335Z,6.38
2023-03-30T10:31:03.498Z,6.43
2023-03-30T10:33:33.039Z,6.44
2023-03-30T10:36:01.404Z,6.45
2023-03-30T10:38:33.424Z,6.49
2023-03-30T10:41:12.043Z,6.55
2023-03-30T10:43:41.258Z,6.61
2023-03-30T10:46:20.552Z,6.69
2023-03-30T10:48:52.102Z,6.75
2023-03-30T10:51:29.625Z,6.80
2023-03-30T10:54:42.280Z,6.82
2023-03-30T10:57:16.163Z,6.83
2023-03-30T10:59:59.348Z,6.82
2023-03-30T11:02:47.067Z,6.84
2023-03-30T11:05:36.547Z,6.89
2023-03-30T11:08:17.388Z,6.93
2023-03-30T11:10:52.658Z,6.94
2023-03-30T11:13:37.217Z,6.95
2023-03-30T11:16:06.461Z,6.96
2023-03-30T11:18:43.898Z,6.96
2023-03-30T11:21:27.604Z,6.98
2023-03-30T11:24:10.812Z,6.98
2023-03-30T11:26:45.528Z,6.98
2023-03-30T11:29:19.873Z,6.98
2023-03-30T11:31:48.804Z,7.00
2023-03-30T11:34:31.665Z,7.06
2023-03-30T11:37:20.773Z,7.11
2023-03-30T11:39:52.398Z,7.13
2023-03-30T11:42:24.434Z,7.15
2023-03-30T11:44:53.114Z,7.17
2023-03-30T11:48:03.062Z,7.20
2023-03-30T11:50:53.597Z,7.24
2023-03-30T11:53:27.954Z,7.28
2023-03-30T11:56:27.182Z,7.35
2023-03-30T11:59:05.917Z,7.40
2023-03-30T12:02:10.499Z,7.44
2023-03-30T12:05:00.651Z,7.49
2023-03-30T12:07:47.318Z,7.53
2023-03-30T12:10:25.977Z,7.55
2023-03-30T12:12:57.918Z,7.57
2023-03-30T12:15:31.609Z,7.59
2023-03-30T12:18:19.494Z,7.62
2023-03-30T12:20:50.777Z,7.65
2023-03-30T12:23:33.363Z,7.68
2023-03-30T12:26:10.725Z,7.71
2023-03-30T12:29:32.641Z,7.73
2023-03-30T12:32:03.692Z,7.75
2023-03-30T12:34:36.590Z,7.77
2023-03-30T12:37:18.443Z,7.88
2023-03-30T12:40:06.974Z,8.25
2023-03-30T12:42:39.627Z,8.50
2023-03-30T12:45:16.696Z,8.57
2023-03-30T12:47:51.821Z,8.54
2023-03-30T12:50:52.704Z,8.48
2023-03-30T12:53:50.211Z,8.71
2023-03-30T12:56:56.356Z,9.07
2023-03-30T12:59:41.354Z,9.40
2023-03-30T13:02:26.984Z,9.70
2023-03-30T13:04:55.910Z,9.72
2023-03-30T13:07:25.794Z,9.66
2023-03-30T13:10:05.610Z,9.58
2023-03-30T13:12:39.670Z,9.46
2023-03-30T13:15:17.325Z,9.35
2023-03-30T13:17:56.211Z,9.23
2023-03-30T13:20:40.753Z,9.14
2023-03-30T13:23:12.485Z,9.05
2023-03-30T13:26:03.519Z,8.93
2023-03-30T13:28:54.949Z,8.81
2023-03-30T13:31:43.221Z,8.70
2023-03-30T13:34:24.558Z,8.56
2023-03-30T13:37:21.251Z,8.47
2023-03-30T13:39:52.943Z,8.41
2023-03-30T13:42:59.338Z,8.36
2023-03-30T13:46:16.548Z,8.25
2023-03-30T13:48:57.951Z,8.06
2023-03-30T13:51:27.553Z,8.02
2023-03-30T13:54:22.323Z,8.01
2023-03-30T13:57:05.923Z,8.00
2023-03-30T13:59:35.295Z,7.98
2023-03-30T14:02:03.906Z,7.93
2023-03-30T14:04:34.504Z,7.86
2023-03-30T14:07:14.362Z,7.78
2023-03-30T14:09:43.637Z,7.67
2023-03-30T14:12:18.700Z,7.65
2023-03-30T14:14:51.471Z,7.66
2023-03-30T14:17:22.521Z,7.69
2023-03-30T14:20:06.940Z,7.71
2023-03-30T14:22:40.062Z,7.69
2023-03-30T14:25:30.608Z,7.66
2023-03-30T14:28:16.140Z,7.63
2023-03-30T14:30:58.211Z,7.60
2023-03-30T14:33:26.705Z,7.58
2023-03-30T14:35:56.954Z,7.53
2023-03-30T14:38:37.515Z,7.52
2023-03-30T14:41:11.285Z,7.52
2023-03-30T14:43:40.918Z,7.53
2023-03-30T14:46:12.811Z,7.53
2023-03-30T14:48:43.511Z,7.51
2023-03-30T14:51:23.686Z,7.45
2023-03-30T14:53:52.563Z,7.40
2023-03-30T14:56:22.363Z,7.37
2023-03-30T14:58:51.474Z,7.35
2023-03-30T15:01:31.514Z,7.34
2023-03-30T15:04:17.152Z,7.34
2023-03-30T15:06:48.651Z,7.32
2023-03-30T15:09:18.897Z,7.27
2023-03-30T15:11:50.850Z,7.21
2023-03-30T15:14:21.581Z,7.16
2023-03-30T15:16:53.783Z,7.14
2023-03-30T15:19:42.998Z,7.10
2023-03-30T15:22:36.897Z,7.04
2023-03-30T15:25:11.292Z,7.01
2023-03-30T15:27:39.525Z,6.97
2023-03-30T15:30:08.355Z,6.93
2023-03-30T15:32:42.484Z,6.90
2023-03-30T15:35:26.658Z,6.87
2023-03-30T15:37:57.964Z,6.82
2023-03-30T15:40:28.910Z,6.79
2023-03-30T15:43:27.082Z,6.76
2023-03-30T15:46:08.567Z,6.73
2023-03-30T15:48:47.212Z,6.70
2023-03-30T15:51:28.819Z,6.65
2023-03-30T15:54:14.159Z,6.61
2023-03-30T15:56:55.578Z,6.59
2023-03-30T15:59:26.455Z,6.55
2023-03-30T16:01:55.928Z,6.53
2023-03-30T16:04:24.842Z,6.51
2023-03-30T16:06:53.084Z,6.49
2023-03-30T16:09:21.270Z,6.48
2023-03-30T16:11:51.537Z,6.45
2023-03-30T16:14:20.522Z,6.41
2023-03-30T16:16:51.076Z,6.37
2023-03-30T16:19:20.398Z,6.35
2023-03-30T16:21:48.631Z,6.33
2023-03-30T16:24:16.687Z,6.31
2023-03-30T16:26:45.037Z,6.28
2023-03-30T16:29:21.956Z,6.25
2023-03-30T16:31:51.238Z,6.23
2023-03-30T16:34:19.884Z,6.19
2023-03-30T16:36:49.112Z,6.16
2023-03-30T16:39:28.530Z,6.14
2023-03-30T16:41:56.890Z,6.11
2023-03-30T16:44:25.586Z,6.10
2023-03-30T16:46:53.669Z,6.08
2023-03-30T16:49:24.524Z,6.07
2023-03-30T16:51:55.331Z,6.04
2023-03-30T16:54:32.702Z,6.02
2023-03-30T16:57:02.001Z,6.00
2023-03-30T16:59:34.452Z,5.96
2023-03-30T17:02:03.652Z,5.92
2023-03-30T17:04:31.768Z,5.92
2023-03-30T17:07:01.891Z,5.90
2023-03-30T17:09:30.326Z,5.90
2023-03-30T17:11:58.418Z,5.89
2023-03-30T17:14:27.848Z,5.88
2023-03-30T17:16:56.288Z,5.87
2023-03-30T17:19:25.518Z,5.87
2023-03-30T17:21:53.872Z,5.87
2023-03-30T17:24:22.175Z,5.87
2023-03-30T17:26:51.471Z,5.86
2023-03-30T17:29:19.849Z,5.85
2023-03-30T17:31:50.591Z,5.83
2023-03-30T17:34:19.177Z,5.81
2023-03-30T17:36:47.190Z,5.79
2023-03-30T17:39:17.025Z,5.77
2023-03-30T17:41:45.037Z,5.75
2023-03-30T17:44:18.061Z,5.73
2023-03-30T17:46:46.451Z,5.71
2023-03-30T17:49:16.601Z,5.70
2023-03-30T17:51:45.800Z,5.68
2023-03-30T17:54:13.824Z,5.67
2023-03-30T17:56:43.462Z,5.65
2023-03-30T17:59:11.988Z,5.63
2023-03-30T18:01:40.431Z,5.62
2023-03-30T18:04:09.403Z,5.61
2023-03-30T18:06:37.882Z,5.60
2023-03-30T18:09:10.835Z,5.58
2023-03-30T18:11:39.817Z,5.56
2023-03-30T18:14:08.404Z,5.54
2023-03-30T18:16:37.623Z,5.54
2023-03-30T18:19:06.144Z,5.54
2023-03-30T18:21:34.527Z,5.54
2023-03-30T18:24:05.227Z,5.54
2023-03-30T18:26:34.243Z,5.53
2023-03-30T18:29:02.390Z,5.52
2023-03-30T18:31:31.930Z,5.51
2023-03-30T18:33:59.936Z,5.51
2023-03-30T18:36:28.836Z,5.51
2023-03-30T18:38:57.306Z,5.50
2023-03-30T18:41:26.047Z,5.50
2023-03-30T18:43:54.577Z,5.49
2023-03-30T18:46:22.717Z,5.48
2023-03-30T18:48:53.190Z,5.48
2023-03-30T18:51:21.718Z,5.46
2023-03-30T18:53:51.068Z,5.46
2023-03-30T18:56:19.279Z,5.46
2023-03-30T18:58:47.444Z,5.45
2023-03-30T19:01:16.364Z,5.46
2023-03-30T19:03:45.338Z,5.48
2023-03-30T19:06:16.569Z,5.51
2023-03-30T19:08:44.812Z,5.57
2023-03-30T19:11:15.638Z,5.63
2023-03-30T19:13:43.917Z,5.69
2023-03-30T19:16:16.723Z,5.74
2023-03-30T19:18:45.296Z,5.79
2023-03-30T19:21:17.157Z,5.84
2023-03-30T19:23:45.417Z,5.90
2023-03-30T19:26:14.164Z,5.95
2023-03-30T19:28:42.214Z,6.01
2023-03-30T19:31:13.558Z,6.06
2023-03-30T19:33:42.529Z,6.11
2023-03-30T19:36:10.966Z,6.15
2023-03-30T19:38:39.188Z,6.19
2023-03-30T19:41:10.995Z,6.23
2023-03-30T19:43:39.604Z,6.27
2023-03-30T19:46:08.971Z,6.31
2023-03-30T19:48:38.520Z,6.34
2023-03-30T19:51:07.118Z,6.37
2023-03-30T19:53:37.786Z,6.40
2023-03-30T19:56:11.144Z,6.42
2023-03-30T19:58:39.277Z,6.46
2023-03-30T20:01:08.301Z,6.50
2023-03-30T20:03:37.519Z,6.51
2023-03-30T20:06:09.457Z,6.52
2023-03-30T20:08:38.326Z,6.55
2023-03-30T20:11:07.998Z,6.56
2023-03-30T20:13:36.108Z,6.59
2023-03-30T20:16:06.043Z,6.62
2023-03-30T20:18:35.761Z,6.65
2023-03-30T20:21:04.642Z,6.68
2023-03-30T20:23:33.291Z,6.68
2023-03-30T20:26:04.380Z,6.70
2023-03-30T20:28:34.298Z,6.72
2023-03-30T20:31:03.097Z,6.74
2023-03-30T20:33:34.843Z,6.77
2023-03-30T20:36:03.010Z,6.79
2023-03-30T20:38:31.309Z,6.79
2023-03-30T20:41:02.313Z,6.79
2023-03-30T20:43:33.796Z,6.81
2023-03-30T20:46:09.817Z,6.80
2023-03-30T20:48:39.330Z,6.81
2023-03-30T20:51:14.674Z,6.82
2023-03-30T20:53:42.731Z,6.83
2023-03-30T20:56:11.384Z,6.82
2023-03-30T20:58:39.974Z,6.83
2023-03-30T21:01:28.355Z,6.84
2023-03-30T21:03:58.669Z,6.83
2023-03-30T21:06:28.154Z,6.80
2023-03-30T21:08:58.344Z,6.79
2023-03-30T21:11:27.998Z,6.81
2023-03-30T21:14:03.027Z,6.83
2023-03-30T21:16:31.968Z,6.84
2023-03-30T21:19:00.963Z,6.83
2023-03-30T21:21:31.608Z,6.81
2023-03-30T21:24:01.909Z,6.78
2023-03-30T21:26:30.642Z,6.77
2023-03-30T21:28:58.727Z,6.78
2023-03-30T21:31:29.223Z,6.80
2023-03-30T21:33:58.142Z,6.81
2023-03-30T21:36:26.232Z,6.82
2023-03-30T21:38:57.645Z,6.82
2023-03-30T21:41:26.289Z,6.83
2023-03-30T21:43:54.717Z,6.85
2023-03-30T21:46:23.915Z,6.87
2023-03-30T21:48:55.961Z,6.87
2023-03-30T21:51:26.545Z,6.87
2023-03-30T21:53:56.413Z,6.88
2023-03-30T21:56:26.113Z,6.87
2023-03-30T21:58:54.153Z,6.88
2023-03-30T22:01:26.415Z,6.88
2023-03-30T22:03:55.248Z,6.90
2023-03-30T22:06:24.145Z,6.89
2023-03-30T22:08:52.525Z,6.89
2023-03-30T22:11:22.759Z,6.89
2023-03-30T22:13:52.467Z,6.88
2023-03-30T22:16:26.026Z,6.87
2023-03-30T22:18:56.522Z,6.86
2023-03-30T22:21:29.344Z,6.83
2023-03-30T22:23:57.797Z,6.81
2023-03-30T22:26:27.489Z,6.78
2023-03-30T22:28:56.326Z,6.75
2023-03-30T22:31:27.939Z,6.69
2023-03-30T22:33:57.258Z,6.63
2023-03-30T22:36:30.038Z,6.59
2023-03-30T22:39:04.278Z,6.54
2023-03-30T22:41:32.950Z,6.49
2023-03-30T22:44:01.154Z,6.47
2023-03-30T22:46:29.962Z,6.46
2023-03-30T22:49:00.245Z,6.47
2023-03-30T22:51:29.141Z,6.47
2023-03-30T22:53:59.492Z,6.49
2023-03-30T22:56:32.034Z,6.49
2023-03-30T22:59:01.468Z,6.51
2023-03-30T23:01:32.647Z,6.55
2023-03-30T23:04:05.127Z,6.54
2023-03-30T23:06:34.579Z,6.51
2023-03-30T23:09:04.118Z,6.51
2023-03-30T23:11:34.520Z,6.51
2023-03-30T23:14:05.497Z,6.50
2023-03-30T23:16:37.705Z,6.50
2023-03-30T23:19:07.594Z,6.49
2023-03-30T23:21:36.910Z,6.48
2023-03-30T23:24:11.405Z,6.47
2023-03-30T23:26:40.499Z,6.46
2023-03-30T23:29:08.570Z,6.45
2023-03-30T23:31:38.277Z,6.44
2023-03-30T23:34:08.649Z,6.45
2023-03-30T23:36:37.760Z,6.46
2023-03-30T23:39:06.196Z,6.48
2023-03-30T23:41:34.346Z,6.48
2023-03-30T23:44:02.542Z,6.47
2023-03-30T23:46:31.251Z,6.47
2023-03-30T23:49:02.020Z,6.48
2023-03-30T23:51:30.506Z,6.47
2023-03-30T23:54:06.370Z,6.48
2023-03-30T23:56:37.247Z,6.47
2023-03-30T23:59:05.733Z,6.45
